Time;durP1;ratioP1;P1;durP2;ratioP2;P2;SDS_P1;SDS_P2;PMS_P1;PMS_P2;Temp;Humidity;BMP_temperature;BMP_pressure;BME280_temperature;BME280_humidity;BME280_pressure;Samples;Min_cycle;Max_cycle;Signal;HPM_P1;HPM_P2
2022/07/15 00:01:33;;;;;;;2.63;0.60;;;;;;;16.88;58.72;102392.88;4978079;28;96528;-35
2022/07/15 00:03:59;;;;;;;0.65;0.50;;;;;;;16.86;58.70;102379.25;4976973;28;96919;-35
2022/07/15 00:06:25;;;;;;;3.35;0.88;;;;;;;16.89;59.09;102386.41;4976115;28;100941;-34
2022/07/15 00:08:50;;;;;;;0.55;0.40;;;;;;;16.87;59.50;102394.69;4976119;28;100735;-35
2022/07/15 00:11:16;;;;;;;1.00;0.57;;;;;;;16.86;59.03;102389.34;4977550;28;96609;-35
2022/07/15 00:13:41;;;;;;;4.30;0.60;;;;;;;16.84;59.20;102391.28;4977865;28;96850;-34
2022/07/15 00:16:06;;;;;;;0.88;0.47;;;;;;;16.75;58.78;102373.56;4977381;28;98067;-34
2022/07/15 00:18:32;;;;;;;1.02;0.60;;;;;;;16.74;58.85;102371.81;4976878;28;111397;-35
2022/07/15 00:20:57;;;;;;;5.05;0.63;;;;;;;16.74;59.43;102386.34;4978032;28;97151;-35
2022/07/15 00:23:22;;;;;;;1.35;0.55;;;;;;;16.74;58.76;102385.50;4977823;28;96858;-35
2022/07/15 00:25:48;;;;;;;2.80;0.68;;;;;;;16.72;59.25;102379.22;4977036;28;99350;-35
2022/07/15 00:28:13;;;;;;;1.17;0.70;;;;;;;16.66;59.70;102380.50;4977006;28;110658;-35
2022/07/15 00:30:40;;;;;;;2.85;0.50;;;;;;;16.67;59.57;102373.16;4977487;28;96784;-35
2022/07/15 00:33:06;;;;;;;0.63;0.35;;;;;;;16.62;59.29;102378.06;4977774;28;96808;-35
2022/07/15 00:35:34;;;;;;;1.00;0.63;;;;;;;16.63;59.61;102379.78;4974302;28;100806;-35
2022/07/15 00:38:00;;;;;;;0.40;0.38;;;;;;;16.60;59.95;102372.66;4975577;28;102031;-34
2022/07/15 00:40:26;;;;;;;3.00;0.60;;;;;;;16.56;59.65;102376.56;4976128;28;96727;-35
2022/07/15 00:42:52;;;;;;;1.70;0.57;;;;;;;16.55;59.85;102366.59;4977745;28;96775;-35
2022/07/15 00:45:20;;;;;;;0.77;0.60;;;;;;;16.53;59.68;102372.16;4976882;28;99262;-35
2022/07/15 00:47:49;;;;;;;0.80;0.30;;;;;;;16.47;59.76;102367.09;4976892;28;97850;-34
2022/07/15 00:50:16;;;;;;;0.38;0.30;;;;;;;16.46;60.24;102373.53;4976186;28;96652;-34
2022/07/15 00:52:45;;;;;;;0.70;0.40;;;;;;;16.38;59.96;102367.66;4976514;28;96966;-34
2022/07/15 00:55:11;;;;;;;0.32;0.32;;;;;;;16.37;59.90;102376.81;4975340;28;100802;-35
2022/07/15 00:57:40;;;;;;;2.55;0.60;;;;;;;16.32;60.33;102374.38;4975470;28;100946;-34
2022/07/15 01:00:07;;;;;;;0.77;0.52;;;;;;;16.22;59.63;102366.84;4975280;28;96651;-35
2022/07/15 01:02:34;;;;;;;3.35;0.70;;;;;;;16.24;60.70;102371.22;4975903;28;97195;-35
2022/07/15 01:05:03;;;;;;;1.23;0.55;;;;;;;16.19;60.68;102375.22;4975509;28;100561;-34
2022/07/15 01:07:29;;;;;;;0.93;0.47;;;;;;;16.16;60.52;102381.78;4975339;28;101022;-35
2022/07/15 01:09:54;;;;;;;4.88;0.30;;;;;;;16.05;61.16;102366.00;4977115;28;96616;-35
2022/07/15 01:12:20;;;;;;;2.47;0.70;;;;;;;16.06;61.32;102384.16;4977454;28;96829;-35
2022/07/15 01:14:45;;;;;;;4.97;0.60;;;;;;;16.07;61.16;102380.47;4976465;28;99411;-34
2022/07/15 01:17:11;;;;;;;2.53;0.57;;;;;;;16.05;60.95;102379.66;4976841;28;99164;-34
2022/07/15 01:19:37;;;;;;;1.48;0.38;;;;;;;16.00;61.25;102368.13;4977337;28;96594;-34
2022/07/15 01:22:05;;;;;;;0.20;0.20;;;;;;;15.99;60.94;102374.56;4975632;28;96976;-34
2022/07/15 01:24:31;;;;;;;6.75;0.63;;;;;;;16.02;61.50;102373.53;4974574;28;100769;-34
2022/07/15 01:26:56;;;;;;;1.80;0.43;;;;;;;16.03;60.71;102381.63;4976297;28;102294;-35
2022/07/15 01:29:21;;;;;;;1.17;0.30;;;;;;;16.01;61.40;102389.03;4976824;28;96728;-34
2022/07/15 01:31:47;;;;;;;0.55;0.32;;;;;;;16.00;61.79;102387.28;4977361;28;96864;-35
2022/07/15 01:34:13;;;;;;;4.35;0.73;;;;;;;15.95;61.03;102380.34;4975075;28;99358;-34
2022/07/15 01:36:38;;;;;;;2.65;0.43;;;;;;;15.92;61.27;102370.44;4975665;28;99016;-34
2022/07/15 01:39:04;;;;;;;2.72;0.38;;;;;;;15.93;61.88;102383.16;4976882;28;96670;-34
2022/07/15 01:41:29;;;;;;;0.50;0.30;;;;;;;15.90;61.64;102383.34;4977379;28;96597;-34
2022/07/15 01:43:54;;;;;;;2.65;0.63;;;;;;;15.91;61.86;102388.69;4978448;28;99323;-34
2022/07/15 01:46:20;;;;;;;2.15;0.50;;;;;;;15.86;61.45;102374.44;4978897;28;119851;-34
2022/07/15 01:51:30;;;;;;;3.22;0.75;;;;;;;15.83;62.23;102369.16;4979952;28;98041;-35
2022/07/15 01:53:55;;;;;;;5.32;0.73;;;;;;;15.85;61.62;102386.34;4978038;28;100824;-34
2022/07/15 01:56:21;;;;;;;1.38;0.40;;;;;;;15.79;62.22;102373.03;4979626;28;97145;-34
2022/07/15 01:58:46;;;;;;;4.07;0.43;;;;;;;15.79;62.44;102377.63;4980042;28;96543;-34
2022/07/15 02:01:11;;;;;;;5.97;1.15;;;;;;;15.74;62.53;102372.44;4980028;28;96943;-34
2022/07/15 02:03:37;;;;;;;4.55;0.75;;;;;;;15.72;62.40;102379.81;4979190;28;98838;-34
2022/07/15 02:06:02;;;;;;;1.05;0.47;;;;;;;15.69;62.56;102385.44;4979194;28;111564;-34
2022/07/15 02:08:27;;;;;;;1.08;0.40;;;;;;;15.62;62.22;102384.91;4979742;28;96601;-34
2022/07/15 02:10:53;;;;;;;1.15;0.50;;;;;;;15.55;62.84;102375.31;4979805;28;96813;-34
2022/07/15 02:13:18;;;;;;;2.38;0.40;;;;;;;15.54;63.15;102379.03;4978961;28;101610;-34
2022/07/15 02:15:43;;;;;;;2.53;0.38;;;;;;;15.49;63.13;102372.94;4979113;28;102431;-34
2022/07/15 02:18:10;;;;;;;0.82;0.32;;;;;;;15.52;63.29;102383.69;4979251;28;96529;-34
2022/07/15 02:20:35;;;;;;;3.88;0.43;;;;;;;15.45;62.58;102365.91;4978233;28;96799;-34
2022/07/15 02:23:01;;;;;;;0.95;0.43;;;;;;;15.45;62.57;102371.38;4978873;28;99392;-34
2022/07/15 02:25:30;;;;;;;3.28;0.90;;;;;;;15.39;63.16;102367.13;4977472;28;100884;-34
2022/07/15 02:27:57;;;;;;;0.80;0.35;;;;;;;15.34;63.07;102369.25;4978180;28;96602;-35
2022/07/15 02:30:28;;;;;;;2.55;0.50;;;;;;;15.38;63.22;102384.47;4978423;28;96802;-34
2022/07/15 02:32:53;;;;;;;1.25;0.50;;;;;;;15.35;63.52;102387.41;4978784;28;99022;-34
2022/07/15 02:35:19;;;;;;;3.08;0.40;;;;;;;15.29;63.33;102385.00;4977832;28;98783;-34
2022/07/15 02:37:44;;;;;;;0.70;0.32;;;;;;;15.26;63.28;102386.06;4978887;28;96529;-34
2022/07/15 02:40:10;;;;;;;1.05;0.47;;;;;;;15.23;63.54;102374.41;4977784;28;97005;-34
2022/07/15 02:42:36;;;;;;;1.85;0.90;;;;;;;15.16;63.80;102370.28;4978871;28;97768;-34
2022/07/15 02:45:02;;;;;;;0.57;0.40;;;;;;;15.19;63.74;102379.19;4978688;28;98182;-34
2022/07/15 02:47:27;;;;;;;0.95;0.45;;;;;;;15.15;63.62;102382.19;4977614;28;96528;-34
2022/07/15 02:49:52;;;;;;;1.73;0.28;;;;;;;15.09;63.50;102377.97;4978614;28;101364;-35
2022/07/15 02:52:18;;;;;;;1.20;0.40;;;;;;;15.09;64.19;102388.88;4978775;28;97894;-34
2022/07/15 02:54:43;;;;;;;1.08;0.30;;;;;;;14.97;64.20;102376.78;4978701;28;102440;-34
2022/07/15 02:57:08;;;;;;;1.45;0.40;;;;;;;15.01;64.19;102391.13;4978930;28;96734;-34
2022/07/15 02:59:34;;;;;;;1.77;0.47;;;;;;;14.98;63.78;102388.56;4978914;28;96854;-34
2022/07/15 03:01:59;;;;;;;0.22;0.17;;;;;;;14.93;64.24;102394.28;4977975;28;97854;-34
2022/07/15 03:04:24;;;;;;;1.95;0.50;;;;;;;14.98;64.79;102400.38;4978492;28;97871;-35
2022/07/15 03:06:50;;;;;;;1.13;0.47;;;;;;;14.91;64.52;102387.16;4978671;28;96693;-35
2022/07/15 03:09:15;;;;;;;2.15;0.50;;;;;;;14.86;65.03;102393.75;4978714;28;96816;-34
2022/07/15 03:11:40;;;;;;;1.83;0.32;;;;;;;14.90;64.76;102397.19;4977102;28;99327;-34
2022/07/15 03:14:06;;;;;;;0.40;0.20;;;;;;;14.82;65.01;102392.13;4977729;28;112491;-34
2022/07/15 03:16:31;;;;;;;0.32;0.25;;;;;;;14.78;65.03;102393.28;4978448;28;96701;-34
2022/07/15 03:18:56;;;;;;;1.48;0.30;;;;;;;14.80;65.30;102402.28;4978989;28;96827;-35
2022/07/15 03:21:22;;;;;;;4.03;0.28;;;;;;;14.83;65.23;102413.00;4978137;28;99255;-35
2022/07/15 03:23:47;;;;;;;1.00;0.38;;;;;;;14.79;64.89;102411.41;4978088;28;97802;-35
2022/07/15 03:26:13;;;;;;;0.57;0.22;;;;;;;14.78;64.99;102417.84;4978202;28;96668;-34
2022/07/15 03:28:38;;;;;;;2.22;0.47;;;;;;;14.79;65.39;102413.25;4978638;28;96776;-34
2022/07/15 03:31:03;;;;;;;0.47;0.28;;;;;;;14.79;65.11;102414.13;4976210;28;110315;-34
2022/07/15 03:33:29;;;;;;;0.95;0.38;;;;;;;14.74;65.62;102413.50;4977606;28;98899;-35
2022/07/15 03:35:54;;;;;;;2.65;0.55;;;;;;;14.76;65.27;102421.63;4967736;28;101275;-35
2022/07/15 03:38:19;;;;;;;0.57;0.22;;;;;;;14.69;65.39;102410.16;4959132;28;96795;-35
2022/07/15 03:40:45;;;;;;;1.05;0.35;;;;;;;14.74;65.32;102418.09;4956376;28;117934;-34
2022/07/15 03:43:10;;;;;;;1.30;0.30;;;;;;;14.74;65.47;102423.53;4958828;28;97762;-34
2022/07/15 03:45:36;;;;;;;1.70;0.47;;;;;;;14.75;65.31;102417.97;4958930;28;96647;-35
2022/07/15 03:48:01;;;;;;;1.35;0.20;;;;;;;14.76;65.41;102421.63;4958405;28;96857;-35
2022/07/15 03:50:27;;;;;;;0.88;0.47;;;;;;;14.78;65.50;102426.03;4957878;28;97944;-35
2022/07/15 03:52:52;;;;;;;0.40;0.20;;;;;;;14.77;65.29;102426.97;4957998;28;99230;-35
2022/07/15 03:55:17;;;;;;;1.30;0.50;;;;;;;14.81;65.46;102436.75;4958632;28;96649;-35
2022/07/15 03:57:43;;;;;;;0.50;0.22;;;;;;;14.76;65.78;102430.69;4958502;28;96969;-35
2022/07/15 04:00:08;;;;;;;1.15;0.28;;;;;;;14.82;65.31;102441.25;4957221;28;116963;-34
2022/07/15 04:02:34;;;;;;;1.42;0.30;;;;;;;14.83;65.11;102440.28;4957906;28;99235;-35
2022/07/15 04:04:59;;;;;;;1.08;0.45;;;;;;;14.84;65.32;102436.59;4958146;28;96595;-34
2022/07/15 04:07:24;;;;;;;3.67;0.50;;;;;;;14.78;65.58;102431.47;4957762;28;100725;-35
2022/07/15 04:09:49;;;;;;;0.75;0.38;;;;;;;14.73;65.40;102422.66;4957424;28;115004;-35
2022/07/15 04:12:15;;;;;;;5.60;0.38;;;;;;;14.79;65.09;102433.22;4957248;28;116247;-35
2022/07/15 04:14:40;;;;;;;0.25;0.20;;;;;;;14.82;65.33;102443.97;4957472;28;96686;-35
2022/07/15 04:17:05;;;;;;;0.95;0.40;;;;;;;14.80;65.25;102440.47;4958373;28;96859;-35
2022/07/15 04:19:31;;;;;;;0.40;0.30;;;;;;;14.84;64.84;102441.16;4957120;28;110568;-35
2022/07/15 04:21:57;;;;;;;0.17;0.15;;;;;;;14.79;65.72;102440.53;4956353;28;100769;-35
2022/07/15 04:24:23;;;;;;;0.63;0.32;;;;;;;14.83;64.94;102448.47;4957951;28;96546;-34
2022/07/15 04:26:48;;;;;;;3.17;0.40;;;;;;;14.85;64.98;102448.41;4956804;28;96944;-34
2022/07/15 04:29:13;;;;;;;1.52;0.30;;;;;;;14.85;64.94;102448.41;4957787;28;97943;-35
2022/07/15 04:31:39;;;;;;;0.57;0.30;;;;;;;14.86;64.61;102456.50;4957775;28;103369;-35
2022/07/15 04:34:04;;;;;;;1.02;0.17;;;;;;;14.82;64.85;102438.50;4957722;28;96632;-35
2022/07/15 04:36:29;;;;;;;0.60;0.40;;;;;;;14.88;64.59;102455.53;4972403;28;96868;-35
2022/07/15 04:38:55;;;;;;;0.50;0.30;;;;;;;14.89;64.67;102449.97;4976863;28;98071;-35
2022/07/15 04:41:20;;;;;;;1.23;0.38;;;;;;;14.89;64.84;102455.44;4977313;28;97935;-35
2022/07/15 04:43:45;;;;;;;7.60;0.93;;;;;;;14.92;64.77;102460.75;4977500;28;96455;-35
2022/07/15 04:46:11;;;;;;;1.25;0.30;;;;;;;14.91;64.71;102453.50;4977389;28;96980;-35
2022/07/15 04:51:20;;;;;;;1.40;0.55;;;;;;;14.94;64.09;102460.66;4977138;28;96597;-35
2022/07/15 04:53:46;;;;;;;0.40;0.17;;;;;;;14.97;64.61;102463.22;4977134;28;96606;-35
2022/07/15 04:56:11;;;;;;;2.30;0.30;;;;;;;14.99;64.43;102461.28;4976249;28;96550;-35
2022/07/15 04:58:37;;;;;;;1.95;0.38;;;;;;;15.02;64.42;102450.22;4975514;28;101122;-34
2022/07/15 05:01:02;;;;;;;2.97;0.65;;;;;;;14.99;64.55;102451.28;4975091;28;100866;-35
2022/07/15 05:03:28;;;;;;;1.75;0.38;;;;;;;15.08;64.20;102464.38;4976836;28;96534;-34
2022/07/15 05:05:53;;;;;;;0.85;0.22;;;;;;;15.12;64.81;102448.75;4977311;28;96813;-35
2022/07/15 05:08:20;;;;;;;3.85;0.45;;;;;;;15.18;64.54;102455.69;4976557;28;98854;-34
2022/07/15 05:10:45;;;;;;;0.30;0.20;;;;;;;15.22;63.49;102451.84;4976566;28;99686;-34
2022/07/15 05:13:11;;;;;;;0.85;0.43;;;;;;;15.20;63.69;102443.72;4977361;28;96716;-34
2022/07/15 05:15:36;;;;;;;0.47;0.35;;;;;;;15.31;63.67;102461.38;4977070;28;96881;-35
2022/07/15 05:18:02;;;;;;;2.22;0.60;;;;;;;15.29;63.49;102443.22;4977387;28;99359;-35
2022/07/15 05:20:27;;;;;;;0.25;0.10;;;;;;;15.37;62.61;102444.63;4980448;28;97395;-34
2022/07/15 05:22:52;;;;;;;2.10;0.38;;;;;;;15.42;62.87;102445.25;4980666;28;96558;-35
2022/07/15 05:25:18;;;;;;;0.75;0.35;;;;;;;15.48;62.49;102434.00;4980354;28;96758;-34
2022/07/15 05:27:44;;;;;;;4.72;0.40;;;;;;;15.62;62.42;102444.13;4979217;28;99906;-34
2022/07/15 05:30:12;;;;;;;1.13;0.70;;;;;;;15.66;62.15;102432.94;4979582;28;99201;-34
2022/07/15 05:32:37;;;;;;;5.45;0.95;;;;;;;15.79;62.16;102443.19;4979004;28;96595;-35
2022/07/15 05:35:03;;;;;;;2.15;0.47;;;;;;;15.80;61.87;102429.47;4979764;28;96867;-34
2022/07/15 05:37:28;;;;;;;1.40;0.43;;;;;;;15.86;61.76;102429.06;4979655;28;100438;-35
2022/07/15 05:39:53;;;;;;;2.08;0.20;;;;;;;15.98;62.05;102435.69;4979497;28;107794;-34
2022/07/15 05:42:23;;;;;;;0.95;0.30;;;;;;;16.02;61.37;102434.53;4979740;28;98135;-34
2022/07/15 05:44:49;;;;;;;0.47;0.30;;;;;;;16.11;61.22;102434.00;4980287;28;96754;-35
2022/07/15 05:47:15;;;;;;;3.20;0.40;;;;;;;16.21;61.09;102436.16;4978167;28;101130;-34
2022/07/15 05:49:41;;;;;;;0.85;0.15;;;;;;;16.31;60.90;102442.84;4978213;28;100925;-34
2022/07/15 05:52:07;;;;;;;0.50;0.30;;;;;;;16.35;60.83;102436.19;4980090;28;96576;-35
2022/07/15 05:54:32;;;;;;;1.85;0.43;;;;;;;16.44;60.45;102438.38;4978614;28;96884;-35
2022/07/15 05:56:58;;;;;;;0.88;0.20;;;;;;;16.58;60.14;102450.34;4979462;28;99077;-34
2022/07/15 05:59:23;;;;;;;2.88;0.20;;;;;;;16.68;60.12;102443.31;4979033;28;99145;-35
2022/07/15 06:01:48;;;;;;;2.40;0.80;;;;;;;16.77;60.11;102446.38;4978600;28;96642;-34
2022/07/15 06:04:14;;;;;;;0.98;0.20;;;;;;;16.87;59.71;102440.34;4980354;28;96836;-34
2022/07/15 06:06:39;;;;;;;1.85;0.40;;;;;;;16.94;59.13;102425.31;4979477;28;97492;-35
2022/07/15 06:09:05;;;;;;;0.75;0.20;;;;;;;17.05;58.82;102443.81;4979574;28;99141;-34
2022/07/15 06:11:30;;;;;;;3.58;0.50;;;;;;;17.07;58.85;102436.38;4979861;28;96703;-35
2022/07/15 06:13:56;;;;;;;0.22;0.20;;;;;;;17.15;58.94;102439.50;4979282;28;96847;-35
2022/07/15 06:16:21;;;;;;;0.10;0.10;;;;;;;17.26;59.09;102436.06;4977253;28;100924;-35
2022/07/15 06:18:48;;;;;;;1.48;0.20;;;;;;;17.34;58.35;102434.59;4979234;28;97499;-34
2022/07/15 06:21:14;;;;;;;2.63;0.40;;;;;;;17.45;58.59;102441.22;4979493;28;96701;-34
2022/07/15 06:23:39;;;;;;;1.42;0.30;;;;;;;17.54;58.17;102447.00;4979493;28;96913;-34
2022/07/15 06:26:05;;;;;;;3.13;0.35;;;;;;;17.61;57.96;102440.13;4979050;28;97425;-35
2022/07/15 06:28:30;;;;;;;2.15;0.20;;;;;;;17.66;57.23;102444.41;4976786;28;99897;-35
2022/07/15 06:30:56;;;;;;;1.40;0.13;;;;;;;17.76;57.40;102442.84;4979823;28;96499;-34
2022/07/15 06:33:24;;;;;;;0.20;0.17;;;;;;;17.79;57.50;102435.28;4979639;28;96824;-35
2022/07/15 06:35:50;;;;;;;0.52;0.28;;;;;;;17.94;57.01;102448.97;4978014;28;99303;-35
2022/07/15 06:38:15;;;;;;;0.13;0.10;;;;;;;17.97;56.89;102435.94;4977412;28;100854;-35
2022/07/15 06:40:41;;;;;;;0.82;0.22;;;;;;;18.14;56.85;102442.13;4978948;28;96709;-35
2022/07/15 06:43:06;;;;;;;3.42;0.47;;;;;;;18.27;56.47;102444.94;4978810;28;96826;-35
2022/07/15 06:45:31;;;;;;;2.30;0.35;;;;;;;18.40;56.03;102448.56;4978692;28;97261;-35
2022/07/15 06:47:57;;;;;;;0.15;0.10;;;;;;;18.52;55.60;102430.38;4980444;28;97512;-35
2022/07/15 06:50:24;;;;;;;0.28;0.20;;;;;;;18.52;54.65;102445.00;5010656;28;96765;-35
2022/07/15 06:52:49;;;;;;;2.28;0.38;;;;;;;18.45;55.47;102449.16;5000061;28;96849;-35
2022/07/15 06:55:15;;;;;;;1.85;0.20;;;;;;;18.39;55.07;102450.44;4998299;28;97962;-35
2022/07/15 06:57:40;;;;;;;2.30;0.20;;;;;;;18.37;55.79;102451.53;4998502;28;97760;-35
2022/07/15 07:00:08;;;;;;;3.08;0.77;;;;;;;18.37;55.56;102452.41;4995313;28;97086;-34
2022/07/15 07:02:33;;;;;;;4.30;0.28;;;;;;;18.37;55.47;102457.91;4998600;28;96838;-35
2022/07/15 07:04:59;;;;;;;13.32;0.60;;;;;;;18.31;55.00;102457.47;4996931;28;99265;-36
2022/07/15 07:07:25;;;;;;;0.47;0.20;;;;;;;18.34;55.45;102460.00;4992091;28;99038;-35
2022/07/15 07:09:51;;;;;;;3.22;0.40;;;;;;;18.37;55.90;102460.63;4990917;28;96844;-35
2022/07/15 07:12:16;;;;;;;0.08;0.08;;;;;;;18.36;55.75;102456.16;4979502;28;96927;-34
2022/07/15 07:14:41;;;;;;;3.70;0.40;;;;;;;18.27;55.69;102453.16;4995998;28;97991;-35
2022/07/15 07:17:07;;;;;;;1.85;0.30;;;;;;;18.29;55.82;102453.94;4995955;28;96987;-36
2022/07/15 07:19:32;;;;;;;1.58;0.38;;;;;;;18.28;56.29;102455.78;4994749;28;96814;-36
2022/07/15 07:21:57;;;;;;;1.00;0.30;;;;;;;18.37;56.72;102459.75;4996700;28;96846;-36
2022/07/15 07:24:23;;;;;;;0.15;0.15;;;;;;;18.39;56.24;102466.91;4996221;28;97126;-35
2022/07/15 07:26:48;;;;;;;2.47;0.20;;;;;;;18.41;56.05;102458.56;4996168;28;106962;-36
2022/07/15 07:29:16;;;;;;;0.60;0.30;;;;;;;18.58;55.97;102463.75;4996042;28;96725;-35
2022/07/15 07:31:41;;;;;;;0.45;0.10;;;;;;;18.91;55.54;102443.19;4998423;28;96902;-35
2022/07/15 07:34:06;;;;;;;3.30;0.50;;;;;;;19.27;54.56;102460.75;4996341;28;97802;-35
2022/07/15 07:36:32;;;;;;;3.25;0.30;;;;;;;19.51;54.19;102455.31;4996273;28;97839;-35
2022/07/15 07:38:57;;;;;;;4.97;0.60;;;;;;;19.72;53.34;102467.50;4998149;28;96659;-35
2022/07/15 07:41:22;;;;;;;0.55;0.20;;;;;;;19.80;53.04;102444.94;4997099;28;96856;-35
2022/07/15 07:43:48;;;;;;;1.63;0.40;;;;;;;20.01;52.72;102455.31;4997640;28;98011;-35
2022/07/15 07:46:16;;;;;;;0.50;0.30;;;;;;;20.17;52.22;102458.66;4997823;28;99198;-35
2022/07/15 07:48:42;;;;;;;2.53;0.22;;;;;;;20.32;51.83;102456.59;4996831;28;96591;-35
2022/07/15 07:51:08;;;;;;;0.75;0.25;;;;;;;20.44;50.30;102450.13;4998171;28;96767;-35
2022/07/15 07:53:34;;;;;;;1.25;0.40;;;;;;;20.51;50.37;102445.03;4997202;28;98038;-35
2022/07/15 07:55:59;;;;;;;1.83;0.32;;;;;;;20.72;49.90;102464.53;4997551;28;97444;-36
2022/07/15 07:58:24;;;;;;;2.65;0.45;;;;;;;20.67;50.10;102450.25;4997366;28;100598;-35
2022/07/15 08:00:52;;;;;;;0.98;0.22;;;;;;;20.71;50.44;102447.13;4997762;28;96783;-35
2022/07/15 08:03:17;;;;;;;1.13;0.20;;;;;;;20.74;49.71;102441.38;4995978;28;99252;-35
2022/07/15 08:05:59;;;;;;;0.77;0.30;;;;;;;20.83;50.13;102439.75;4997355;28;99252;-35
2022/07/15 08:08:24;;;;;;;2.83;0.35;;;;;;;21.06;48.74;102454.44;4997823;28;97445;-35
2022/07/15 08:10:55;;;;;;;0.98;0.32;;;;;;;21.00;48.47;102446.69;4998677;28;96866;-35
2022/07/15 08:13:22;;;;;;;1.02;0.22;;;;;;;20.83;47.64;102441.63;4979706;28;100992;-35
2022/07/15 08:15:48;;;;;;;1.02;0.25;;;;;;;20.86;49.30;102455.19;4975973;28;100789;-35
2022/07/15 08:18:14;;;;;;;1.30;0.32;;;;;;;21.09;49.31;102434.91;4975902;28;96603;-35
2022/07/15 08:20:40;;;;;;;1.25;0.20;;;;;;;21.29;48.62;102448.97;4977951;28;96801;-35
2022/07/15 08:23:06;;;;;;;1.77;0.32;;;;;;;21.30;48.49;102440.53;4977017;28;100205;-36
2022/07/15 08:25:34;;;;;;;0.32;0.28;;;;;;;21.09;48.76;102445.91;4975944;28;100940;-35
2022/07/15 08:28:00;;;;;;;0.38;0.10;;;;;;;21.15;47.73;102450.06;4977774;28;96695;-35
2022/07/15 08:30:27;;;;;;;0.52;0.10;;;;;;;21.43;48.11;102445.97;4976302;28;96916;-35
2022/07/15 08:32:54;;;;;;;1.58;0.15;;;;;;;21.59;47.89;102431.78;4975833;28;100880;-35
2022/07/15 08:35:20;;;;;;;1.50;0.20;;;;;;;21.95;46.69;102438.88;4975381;28;98950;-36
2022/07/15 08:37:45;;;;;;;0.45;0.10;;;;;;;22.25;46.87;102448.31;4977353;28;96636;-35
2022/07/15 08:40:11;;;;;;;0.30;0.10;;;;;;;22.42;46.09;102458.78;4977208;28;96912;-35
2022/07/15 08:42:39;;;;;;;0.95;0.15;;;;;;;22.60;45.93;102448.03;4975148;28;101002;-36
2022/07/15 08:45:06;;;;;;;0.75;0.30;;;;;;;22.44;46.15;102451.22;4975517;28;100734;-36
2022/07/15 08:47:32;;;;;;;3.13;0.55;;;;;;;22.06;46.79;102444.31;4976131;28;96594;-36
2022/07/15 08:49:58;;;;;;;2.95;0.22;;;;;;;21.80;46.51;102448.41;4976027;28;96885;-36
2022/07/15 08:52:24;;;;;;;3.65;0.52;;;;;;;21.63;48.27;102444.31;4978567;28;97887;-36
2022/07/15 08:54:53;;;;;;;0.95;0.22;;;;;;;21.52;48.00;102450.69;4979176;28;100987;-35
2022/07/15 08:57:19;;;;;;;0.20;0.10;;;;;;;21.44;48.18;102446.84;4980694;28;96661;-35
2022/07/15 08:59:46;;;;;;;4.78;0.50;;;;;;;21.41;48.56;102457.13;4980934;28;96932;-35
2022/07/15 09:02:18;;;;;;;0.90;0.30;;;;;;;21.44;47.54;102456.00;4978879;28;100965;-35
2022/07/15 09:05:24;;;;;;;0.77;0.40;;;;;;;21.40;48.28;102448.97;4978766;28;99731;-36
2022/07/15 09:08:13;;;;;;;0.35;0.30;;;;;;;21.21;48.63;102455.06;4980049;28;96509;-35
2022/07/15 09:10:57;;;;;;;0.75;0.20;;;;;;;21.06;48.70;102451.69;4979274;28;96730;-35
2022/07/15 09:13:25;;;;;;;0.73;0.40;;;;;;;20.99;49.42;102447.66;4980390;28;97944;-36
2022/07/15 09:15:51;;;;;;;1.92;0.28;;;;;;;20.87;49.01;102444.00;4980099;28;97883;-35
2022/07/15 09:18:20;;;;;;;2.63;0.50;;;;;;;20.92;49.68;102455.53;4980230;28;96524;-34
2022/07/15 09:20:47;;;;;;;1.02;0.32;;;;;;;21.31;47.95;102449.69;4979094;28;96922;-35
2022/07/15 09:23:20;;;;;;;1.00;0.20;;;;;;;21.50;48.01;102449.06;4977173;28;100751;-34
2022/07/15 09:25:47;;;;;;;1.15;0.43;;;;;;;21.48;46.55;102438.19;4980264;28;99226;-35
2022/07/15 09:28:13;;;;;;;2.15;0.32;;;;;;;21.63;47.41;102447.06;4978993;28;96695;-36
2022/07/15 09:33:41;;;;;;;1.23;0.28;;;;;;;21.59;47.89;102442.81;4979618;28;97131;-35
2022/07/15 09:36:12;;;;;;;0.75;0.35;;;;;;;21.57;47.83;102439.28;4979405;28;97966;-36
2022/07/15 09:38:45;;;;;;;0.22;0.20;;;;;;;21.92;46.94;102441.84;4980226;28;96640;-36
2022/07/15 09:41:25;;;;;;;1.00;0.30;;;;;;;22.39;46.99;102439.72;4980229;28;96814;-35
2022/07/15 09:43:52;;;;;;;2.50;0.35;;;;;;;22.90;46.37;102436.13;4979683;28;99693;-36
2022/07/15 09:46:20;;;;;;;1.17;0.10;;;;;;;23.13;44.89;102416.66;4979534;28;97884;-36
2022/07/15 09:48:48;;;;;;;1.13;0.32;;;;;;;23.24;45.30;102423.97;4978739;28;96702;-35
2022/07/15 09:51:14;;;;;;;2.20;0.70;;;;;;;22.90;45.47;102414.03;4979150;28;96641;-35
2022/07/15 09:53:40;;;;;;;1.05;0.30;;;;;;;22.91;45.43;102425.97;4978173;28;100917;-35
2022/07/15 09:56:11;;;;;;;0.68;0.25;;;;;;;22.72;45.38;102431.41;4979379;28;99617;-35
2022/07/15 09:58:38;;;;;;;0.52;0.35;;;;;;;22.46;46.44;102420.72;4978075;28;96635;-35
2022/07/15 10:01:04;;;;;;;0.73;0.35;;;;;;;22.22;46.70;102416.31;4977385;28;97182;-36
2022/07/15 10:03:32;;;;;;;1.98;0.68;;;;;;;22.05;46.46;102423.25;4977788;28;98107;-36
2022/07/15 10:05:59;;;;;;;2.05;0.30;;;;;;;21.88;46.42;102423.84;4978376;28;97294;-36
2022/07/15 10:08:24;;;;;;;2.75;0.52;;;;;;;21.73;46.81;102417.72;4979009;28;96750;-35
2022/07/15 10:10:51;;;;;;;1.73;0.47;;;;;;;21.66;46.90;102418.34;4978868;28;97149;-36
2022/07/15 10:13:38;;;;;;;4.90;0.40;;;;;;;21.74;47.05;102413.09;4978692;28;99346;-36
2022/07/15 10:16:22;;;;;;;0.75;0.43;;;;;;;22.26;46.16;102420.59;4979162;28;99238;-36
2022/07/15 10:19:06;;;;;;;0.80;0.25;;;;;;;22.85;44.84;102419.09;4979809;28;96590;-35
2022/07/15 10:21:53;;;;;;;0.63;0.40;;;;;;;23.18;44.92;102410.72;4978248;28;96713;-36
2022/07/15 10:24:53;;;;;;;0.85;0.45;;;;;;;22.90;44.46;102414.03;4977184;28;100969;-35
2022/07/15 10:27:48;;;;;;;2.15;0.43;;;;;;;22.94;44.56;102402.72;4979198;28;97909;-36
2022/07/15 10:30:19;;;;;;;3.25;0.70;;;;;;;23.05;43.45;102399.91;4978060;28;96600;-36
2022/07/15 10:33:03;;;;;;;1.48;0.57;;;;;;;23.38;43.99;102403.38;4978166;28;96724;-36
2022/07/15 10:35:52;;;;;;;3.42;0.40;;;;;;;23.62;43.18;102401.13;4978294;28;98057;-36
2022/07/15 10:38:25;;;;;;;0.47;0.30;;;;;;;23.89;41.64;102402.38;4979020;28;97904;-35
2022/07/15 10:41:02;;;;;;;0.57;0.45;;;;;;;23.78;41.99;102396.94;4977889;28;96577;-35
2022/07/15 10:43:44;;;;;;;0.82;0.55;;;;;;;23.38;41.06;102392.31;4979482;28;96903;-35
2022/07/15 10:46:15;;;;;;;2.72;0.82;;;;;;;23.08;43.40;102396.84;4977318;28;100951;-35
2022/07/15 10:48:40;;;;;;;1.08;0.60;;;;;;;23.37;42.25;102387.78;4978841;28;97845;-35
2022/07/15 10:51:06;;;;;;;1.65;0.70;;;;;;;23.76;42.60;102398.97;4978746;28;96580;-36
2022/07/15 10:53:32;;;;;;;3.35;0.80;;;;;;;24.02;41.92;102388.22;4979296;28;96839;-35
2022/07/15 10:56:30;;;;;;;0.60;0.47;;;;;;;24.35;41.04;102389.69;4977147;28;101097;-35
2022/07/15 10:59:10;;;;;;;0.93;0.50;;;;;;;24.19;41.27;102389.41;4978368;28;99191;-35
2022/07/15 11:01:41;;;;;;;3.70;0.50;;;;;;;23.77;41.36;102379.47;4978871;28;96629;-36
2022/07/15 11:04:20;;;;;;;3.30;0.70;;;;;;;23.55;41.23;102388.88;4977665;28;96818;-36
2022/07/15 11:07:06;;;;;;;0.43;0.38;;;;;;;23.76;41.38;102388.78;4977181;28;100643;-36
2022/07/15 11:09:56;;;;;;;0.80;0.32;;;;;;;23.90;41.63;102391.13;4977370;28;100022;-35
2022/07/15 11:12:30;;;;;;;2.63;0.35;;;;;;;23.50;41.95;102397.59;4979269;28;96555;-35
2022/07/15 11:15:03;;;;;;;2.10;0.38;;;;;;;23.13;42.99;102383.50;4977954;28;96860;-35
2022/07/15 11:17:28;;;;;;;2.55;0.60;;;;;;;23.13;43.58;102400.06;4977378;28;97523;-35
2022/07/15 11:20:08;;;;;;;3.37;0.60;;;;;;;23.49;42.01;102390.28;4978206;28;98949;-35
2022/07/15 11:22:34;;;;;;;3.28;0.70;;;;;;;23.94;41.83;102394.50;4978847;28;96488;-35
2022/07/15 11:24:59;;;;;;;3.75;0.50;;;;;;;24.14;41.79;102392.59;4977392;28;97122;-35
2022/07/15 11:27:25;;;;;;;0.65;0.30;;;;;;;24.39;41.60;102385.59;4977951;28;99214;-35
2022/07/15 11:30:01;;;;;;;1.83;0.60;;;;;;;24.42;40.37;102382.53;4978007;28;99337;-35
2022/07/15 11:32:28;;;;;;;1.33;0.52;;;;;;;24.32;40.71;102377.00;4978420;28;96577;-36
2022/07/15 11:34:59;;;;;;;0.50;0.28;;;;;;;24.04;41.07;102380.66;4976815;28;96905;-35